Time,TemperatureF,DewpointF,PressureIn,WindDirection,WindDirectionDegrees,WindSpeedMPH,WindSpeedGustMPH,Humidity,HourlyPrecipIn,Conditions,Clouds,dailyrainin,SoftwareType,DateUTC
2013-08-08 00:00:00,50.0,-99.9,-100.00,NW,314,108.0,-999.0,-999,-99.99,,,0.00,,2013-08-08 06:00:00,
2013-08-08 00:43:00,50.0,-99.9,-100.00,NW,314,108.0,-999.0,-999,-99.99,,,0.00,,2013-08-08 06:43:00,
2013-08-08 01:00:00,50.0,-99.9,-100.00,West,278,104.0,-999.0,-999,-99.99,,,0.00,,2013-08-08 07:00:00,
2013-08-08 01:43:00,50.0,-99.9,-100.00,West,278,104.0,-999.0,-999,-99.99,,,0.00,,2013-08-08 07:43:00,
2013-08-08 02:00:00,56.0,-99.9,-100.00,SW,229,84.0,-999.0,-999,-99.99,,,0.00,,2013-08-08 08:00:00,
2013-08-08 03:00:00,54.0,-99.9,-100.00,SSW,211,76.0,-999.0,-999,-99.99,,,-99.99,,2013-08-08 09:00:00,
2013-08-08 04:00:00,49.0,-99.9,-100.00,WSW,248,87.0,-999.0,-999,-99.99,,,0.00,,2013-08-08 10:00:00,
2013-08-08 05:00:00,47.0,-99.9,-100.00,North,-999,-999.0,-999.0,-999,-99.99,,,-99.99,,2013-08-08 11:00:00,
2013-08-08 06:00:00,47.0,-99.9,-100.00,WNW,303,103.0,-999.0,-999,-99.99,,,-99.99,,2013-08-08 12:00:00,
2013-08-08 07:00:00,49.0,-99.9,-100.00,WNW,296,103.0,-999.0,-999,-99.99,,,0.00,,2013-08-08 13:00:00,
2013-08-08 08:00:00,57.0,-99.9,-100.00,WSW,243,91.0,-999.0,-999,-99.99,,,0.00,,2013-08-08 14:00:00,
2013-08-08 09:00:00,63.0,-99.9,-100.00,South,176,73.0,-999.0,-999,-99.99,,,-99.99,,2013-08-08 15:00:00,
2013-08-08 10:00:00,62.0,-99.9,-100.00,South,173,64.0,-999.0,-999,-99.99,,,0.00,,2013-08-08 16:00:00,
2013-08-08 11:00:00,62.0,-99.9,-100.00,South,184,69.0,-999.0,-999,-99.99,,,0.00,,2013-08-08 17:00:00,
2013-08-08 12:00:00,62.0,-99.9,-100.00,SSW,203,72.0,-999.0,-999,-99.99,,,0.00,,2013-08-08 18:00:00,
2013-08-08 12:53:00,62.0,-99.9,-100.00,SSW,203,72.0,-999.0,-999,-99.99,,,0.00,,2013-08-08 18:53:00,
2013-08-08 13:00:00,63.0,-99.9,-100.00,SSW,205,74.0,-999.0,-999,-99.99,,,0.00,,2013-08-08 19:00:00,
2013-08-08 14:00:00,65.0,-99.9,-100.00,South,184,74.0,-999.0,-999,-99.99,,,0.00,,2013-08-08 20:00:00,
2013-08-08 14:53:00,65.0,-99.9,-100.00,South,184,74.0,-999.0,-999,-99.99,,,0.00,,2013-08-08 20:53:00,
2013-08-08 15:00:00,63.0,-99.9,-100.00,South,182,70.0,-999.0,-999,-99.99,,,0.00,,2013-08-08 21:00:00,
2013-08-08 16:58:00,61.0,-99.9,-100.00,SSW,202,74.0,-999.0,-999,-99.99,,,0.00,,2013-08-08 22:58:00,
2013-08-08 17:00:00,56.0,-99.9,-100.00,SSW,203,74.0,-999.0,-999,-99.99,,,0.00,,2013-08-08 23:00:00,
2013-08-08 17:59:00,56.0,-99.9,-100.00,SSW,203,74.0,-999.0,-999,-99.99,,,0.00,,2013-08-08 23:59:00,
2013-08-08 18:00:00,55.0,-99.9,-100.00,SW,221,76.0,-999.0,-999,-99.99,,,0.00,,2013-08-09 00:00:00,
2013-08-08 18:58:00,55.0,-99.9,-100.00,SW,221,76.0,-999.0,-999,-99.99,,,0.00,,2013-08-09 00:58:00,
2013-08-08 19:00:00,56.0,-99.9,-100.00,SW,221,79.0,-999.0,-999,-99.99,,,0.00,,2013-08-09 01:00:00,
2013-08-08 20:48:00,54.0,-99.9,-100.00,South,182,66.0,-999.0,-999,-99.99,,,0.00,,2013-08-09 02:48:00,
2013-08-08 20:58:00,54.0,-99.9,-100.00,South,182,66.0,-999.0,-999,-99.99,,,0.00,,2013-08-09 02:58:00,
2013-08-08 21:00:00,50.0,-99.9,-100.00,SSW,202,71.0,-999.0,-999,-99.99,,,0.00,,2013-08-09 03:00:00,
2013-08-08 21:57:00,50.0,-99.9,-100.00,SSW,202,71.0,-999.0,-999,-99.99,,,0.00,,2013-08-09 03:57:00,
2013-08-08 22:00:00,49.0,-99.9,-100.00,SSW,203,70.0,-999.0,-999,-99.99,,,0.00,,2013-08-09 04:00:00,
2013-08-08 22:53:00,49.0,-99.9,-100.00,SSW,203,70.0,-999.0,-999,-99.99,,,0.00,,2013-08-09 04:53:00,
2013-08-08 23:00:00,48.0,-99.9,-100.00,SSW,203,73.0,-999.0,-999,-99.99,,,-99.99,,2013-08-09 05:00:00,
2013-08-08 23:43:00,48.0,-99.9,-100.00,SSW,203,73.0,-999.0,-999,-99.99,,,-99.99,,2013-08-09 05:43:00,
2013-08-08 23:52:00,48.0,-99.9,-100.00,SSW,203,73.0,-999.0,-999,-99.99,,,-99.99,,2013-08-09 05:52:00,